Station Historical Data
Daily Summary for August 16, 2012 Units:  Metric    English   Both
« Previous Day
Next Day »
Daily Weekly Monthly Yearly Custom
  High: Low: Average:
Temperature: 31.6 °C 18.3 °C 24.9 °C
Dew Point: 23.3 °C 17.2 °C 20.8 °C
Humidity: 93% 56% 79%
Wind Speed: 16.1km/h 0km/h 3.7km/h
Wind Gust: 19.3km/h - -
Wind- - South
Pressure: 1016.1 hPa 1010.7 hPa -
Precipitation: 0 mm    
Historical Graphs
 
 
Tabular Data for August 16, 2012
Time Temperature Dew Point Pressure Wind Wind Speed Wind Gust Humidity Rainfall Rate (Hourly) Conditions
00:00 20.7 °C 19.3 °C 1014.1 hPa Calm     92% 0 mm
00:01 20.7 °C 19.3 °C 1014.1 hPa Calm     92% 0 mm
00:06 20.7 °C 19.6 °C 1014.1 hPa Calm     93% 0 mm
00:11 20.9 °C 19.7 °C 1014.1 hPa Calm     93% 0 mm
00:16 21 °C 19.8 °C 1014.1 hPa Calm     93% 0 mm
00:21 21.1 °C 19.8 °C 1014.1 hPa Calm     92% 0 mm
00:26 21.2 °C 19.8 °C 1014.1 hPa Calm     92% 0 mm
00:31 21.2 °C 19.8 °C 1014.4 hPa Calm     92% 0 mm
00:36 21.2 °C 19.9 °C 1014.4 hPa Calm     92% 0 mm
00:41 21.3 °C 19.9 °C 1014.4 hPa Calm     92% 0 mm
00:46 21.3 °C 19.9 °C 1014.4 hPa Calm     92% 0 mm
00:51 21.3 °C 20 °C 1014.4 hPa Calm     92% 0 mm
00:56 21.4 °C 20.1 °C 1014.4 hPa Calm     92% 0 mm
01:01 21.4 °C 19.9 °C 1014.4 hPa Calm     91% 0 mm
01:06 21.3 °C 19.8 °C 1014.4 hPa Calm     91% 0 mm
01:11 21.2 °C 19.7 °C 1014.4 hPa Calm     91% 0 mm
01:16 20.8 °C 19.5 °C 1014.4 hPa Calm     92% 0 mm
01:21 20.8 °C 19.4 °C 1014.4 hPa Calm     92% 0 mm
01:26 20.8 °C 19.5 °C 1014.4 hPa Calm     92% 0 mm
01:31 20.7 °C 19.4 °C 1014.4 hPa Calm     92% 0 mm
01:36 20.6 °C 19.2 °C 1014.4 hPa Calm     92% 0 mm
01:41 20.5 °C 19.3 °C 1014.4 hPa Calm     93% 0 mm
01:46 20.4 °C 19.1 °C 1014.4 hPa Calm     92% 0 mm
01:51 20.2 °C 19 °C 1014.4 hPa Calm     93% 0 mm
01:56 20.2 °C 19 °C 1014.4 hPa Calm     93% 0 mm
02:01 20 °C 18.8 °C 1014.4 hPa Calm     93% 0 mm
02:06 19.9 °C 18.8 °C 1014.4 hPa NE 3.2 km/h 4.8 km/h 93% 0 mm
02:11 19.8 °C 18.7 °C 1014.4 hPa Calm     93% 0 mm
02:16 19.8 °C 18.7 °C 1014.4 hPa NE 1.6 km/h 1.6 km/h 93% 0 mm
02:21 19.7 °C 18.6 °C 1014.4 hPa NNE 3.2 km/h 3.2 km/h 93% 0 mm
02:26 19.8 °C 18.6 °C 1014.4 hPa Calm   4.8 km/h 93% 0 mm
02:31 19.7 °C 18.5 °C 1014.4 hPa Calm     93% 0 mm
02:36 19.6 °C 18.4 °C 1014.4 hPa Calm     93% 0 mm
02:41 19.4 °C 18.3 °C 1014.4 hPa Calm     93% 0 mm
02:46 19.3 °C 18.1 °C 1014.4 hPa Calm     93% 0 mm
02:52 19.3 °C 18.1 °C 1014.4 hPa Calm     93% 0 mm
02:57 19.4 °C 18.2 °C 1014.4 hPa Calm     93% 0 mm
03:02 19.4 °C 18.2 °C 1014.4 hPa Calm     93% 0 mm
03:07 19.3 °C 18.1 °C 1014.4 hPa Calm     93% 0 mm
03:12 19.2 °C 18 °C 1014.4 hPa Calm     93% 0 mm
03:17 19.2 °C 18 °C 1014.4 hPa Calm     93% 0 mm
03:22 19.3 °C 18.1 °C 1014.4 hPa Calm     93% 0 mm
03:27 19.3 °C 18.2 °C 1014.8 hPa Calm     93% 0 mm
03:32 19.4 °C 18.3 °C 1014.8 hPa Calm   1.6 km/h 93% 0 mm
03:37 19.5 °C 18.3 °C 1014.8 hPa Calm     93% 0 mm
03:42 19.4 °C 18.2 °C 1014.8 hPa Calm     93% 0 mm
03:47 19.3 °C 18.2 °C 1014.8 hPa Calm     93% 0 mm
03:52 19.3 °C 18.1 °C 1014.8 hPa Calm     93% 0 mm
03:57 19.2 °C 18.1 °C 1014.8 hPa Calm     93% 0 mm
04:02 19.1 °C 17.9 °C 1014.8 hPa Calm     93% 0 mm
04:07 19.1 °C 17.9 °C 1014.8 hPa Calm     93% 0 mm
04:12 19.1 °C 17.9 °C 1014.8 hPa Calm     93% 0 mm
04:17 18.9 °C 17.7 °C 1014.8 hPa Calm     93% 0 mm
04:22 18.8 °C 17.6 °C 1014.8 hPa Calm     93% 0 mm
04:27 18.9 °C 17.7 °C 1014.8 hPa Calm     93% 0 mm
04:32 18.9 °C 17.7 °C 1014.8 hPa Calm     93% 0 mm
04:37 18.8 °C 17.6 °C 1015.1 hPa Calm     93% 0 mm
04:42 18.7 °C 17.5 °C 1014.8 hPa Calm     93% 0 mm
04:47 18.8 °C 17.6 °C 1015.1 hPa Calm     93% 0 mm
04:52 19 °C 17.8 °C 1015.1 hPa ESE 3.2 km/h 3.2 km/h 93% 0 mm
04:57 19.1 °C 17.9 °C 1015.1 hPa Calm   3.2 km/h 93% 0 mm
05:02 19.1 °C 17.9 °C 1015.1 hPa Calm     93% 0 mm
05:07 19 °C 17.8 °C 1015.1 hPa Calm     93% 0 mm
05:12 18.8 °C 17.6 °C 1015.1 hPa Calm     93% 0 mm
05:17 18.7 °C 17.5 °C 1015.1 hPa Calm     93% 0 mm
05:22 18.7 °C 17.6 °C 1015.1 hPa Calm     93% 0 mm
05:27 18.7 °C 17.5 °C 1015.1 hPa Calm     93% 0 mm
05:32 18.8 °C 17.7 °C 1015.1 hPa Calm     93% 0 mm
05:37 18.8 °C 17.7 °C 1015.1 hPa Calm     93% 0 mm
05:42 18.7 °C 17.6 °C 1015.1 hPa Calm     93% 0 mm
05:47 18.7 °C 17.5 °C 1015.1 hPa Calm     93% 0 mm
05:52 18.6 °C 17.4 °C 1015.1 hPa Calm     93% 0 mm
05:57 18.6 °C 17.4 °C 1015.1 hPa Calm     93% 0 mm
06:02 18.6 °C 17.4 °C 1015.1 hPa Calm     93% 0 mm
06:07 18.6 °C 17.4 °C 1015.1 hPa Calm     93% 0 mm
06:12 18.6 °C 17.4 °C 1015.1 hPa Calm     93% 0 mm
06:17 18.6 °C 17.4 °C 1015.1 hPa Calm     93% 0 mm
06:22 18.6 °C 17.4 °C 1015.5 hPa Calm     93% 0 mm
06:27 18.5 °C 17.3 °C 1015.5 hPa Calm     93% 0 mm
06:32 18.6 °C 17.4 °C 1015.1 hPa Calm     93% 0 mm
06:37 18.5 °C 17.3 °C 1015.1 hPa Calm     93% 0 mm
06:42 18.3 °C 17.2 °C 1015.1 hPa Calm     93% 0 mm
06:47 18.4 °C 17.3 °C 1015.1 hPa Calm     93% 0 mm
06:52 18.7 °C 17.6 °C 1015.1 hPa Calm     93% 0 mm
06:57 18.8 °C 17.7 °C 1015.1 hPa Calm     93% 0 mm
07:02 18.7 °C 17.6 °C 1015.1 hPa Calm     93% 0 mm
07:07 18.7 °C 17.6 °C 1015.1 hPa Calm     93% 0 mm
07:13 18.7 °C 17.5 °C 1015.1 hPa Calm     93% 0 mm
07:18 18.6 °C 17.4 °C 1015.1 hPa Calm     93% 0 mm
07:23 18.5 °C 17.3 °C 1015.1 hPa Calm     93% 0 mm
07:28 18.6 °C 17.4 °C 1015.1 hPa Calm     93% 0 mm
07:33 18.7 °C 17.5 °C 1015.1 hPa Calm     93% 0 mm
07:38 18.6 °C 17.4 °C 1015.1 hPa Calm     93% 0 mm
07:43 18.6 °C 17.4 °C 1015.5 hPa Calm     93% 0 mm
07:48 18.6 °C 17.4 °C 1015.5 hPa Calm     93% 0 mm
07:53 18.7 °C 17.6 °C 1015.5 hPa Calm     93% 0 mm
07:58 18.9 °C 17.8 °C 1015.5 hPa Calm     93% 0 mm
08:03 19.4 °C 18.2 °C 1015.5 hPa Calm     93% 0 mm
08:08 19.5 °C 18.3 °C 1015.5 hPa Calm     93% 0 mm
08:13 19.6 °C 18.4 °C 1015.5 hPa SSW 1.6 km/h 3.2 km/h 93% 0 mm
08:18 19.8 °C 18.6 °C 1015.5 hPa SSW 1.6 km/h 1.6 km/h 93% 0 mm
08:23 20 °C 18.8 °C 1015.5 hPa SW 1.6 km/h 3.2 km/h 93% 0 mm
08:28 20.2 °C 19.1 °C 1015.5 hPa Calm   1.6 km/h 93% 0 mm
08:33 20.5 °C 19.3 °C 1015.5 hPa Calm   1.6 km/h 93% 0 mm
08:38 21 °C 19.8 °C 1015.5 hPa Calm     93% 0 mm
08:43 21.5 °C 20.3 °C 1015.5 hPa Calm     93% 0 mm
08:48 21.9 °C 20.8 °C 1015.5 hPa Calm   1.6 km/h 93% 0 mm
08:53 22.3 °C 21.1 °C 1015.5 hPa Calm     93% 0 mm
08:58 22.5 °C 21.3 °C 1015.5 hPa Calm     93% 0 mm
09:03 22.7 °C 21.3 °C 1015.5 hPa SE 3.2 km/h 3.2 km/h 92% 0 mm
09:08 22.8 °C 21.4 °C 1015.5 hPa SSE 3.2 km/h 4.8 km/h 92% 0 mm
09:13 23 °C 21.4 °C 1015.5 hPa SE 4.8 km/h 4.8 km/h 91% 0 mm
09:18 23.3 °C 21.7 °C 1015.5 hPa SSE 3.2 km/h 4.8 km/h 91% 0 mm
09:23 23.4 °C 21.7 °C 1015.5 hPa SE 3.2 km/h 4.8 km/h 90% 0 mm
09:28 23.6 °C 21.7 °C 1015.5 hPa SE 3.2 km/h 4.8 km/h 89% 0 mm
09:33 23.9 °C 22 °C 1015.8 hPa SSE 1.6 km/h 6.4 km/h 89% 0 mm
09:38 24.2 °C 21.9 °C 1015.8 hPa SW 4.8 km/h 6.4 km/h 87% 0 mm
09:43 24.3 °C 21.6 °C 1015.8 hPa South 3.2 km/h 4.8 km/h 85% 0 mm
09:48 24.5 °C 22.2 °C 1015.8 hPa WSW 3.2 km/h 4.8 km/h 87% 0 mm
09:53 24.6 °C 21.6 °C 1015.8 hPa SW 3.2 km/h 6.4 km/h 83% 0 mm
09:58 24.8 °C 21.8 °C 1015.8 hPa SSW 3.2 km/h 8 km/h 83% 0 mm
10:03 24.9 °C 21.7 °C 1015.8 hPa SW 3.2 km/h 6.4 km/h 82% 0 mm
10:08 25.1 °C 21.8 °C 1015.5 hPa SSW 3.2 km/h 4.8 km/h 82% 0 mm
10:13 25.4 °C 21.5 °C 1015.8 hPa South 6.4 km/h 8 km/h 79% 0 mm
10:18 25.5 °C 21.2 °C 1015.8 hPa SSW 9.7 km/h 9.7 km/h 77% 0 mm
10:23 25.6 °C 21.2 °C 1015.8 hPa WSW 8 km/h 9.7 km/h 77% 0 mm
10:28 25.7 °C 21.4 °C 1015.8 hPa SSW 6.4 km/h 9.7 km/h 77% 0 mm
10:33 25.8 °C 20.8 °C 1015.8 hPa South 9.7 km/h 12.9 km/h 74% 0 mm
10:38 26.1 °C 21.7 °C 1015.8 hPa SW 4.8 km/h 8 km/h 77% 0 mm
10:43 26.2 °C 20.7 °C 1015.8 hPa South 6.4 km/h 12.9 km/h 72% 0 mm
10:48 26.2 °C 20.8 °C 1015.8 hPa South 9.7 km/h 14.5 km/h 72% 0 mm
10:53 26.3 °C 20.4 °C 1015.8 hPa SSE 9.7 km/h 17.7 km/h 70% 0 mm
10:58 26.5 °C 21.1 °C 1015.8 hPa SE 11.3 km/h 16.1 km/h 72% 0 mm
11:03 26.4 °C 20.7 °C 1015.8 hPa SSW 6.4 km/h 16.1 km/h 71% 0 mm
11:08 26.6 °C 21.1 °C 1015.8 hPa South 4.8 km/h 9.7 km/h 72% 0 mm
11:13 26.8 °C 21.2 °C 1016.1 hPa South 8 km/h 11.3 km/h 71% 0 mm
11:19 26.8 °C 20.7 °C 1016.1 hPa South 6.4 km/h 9.7 km/h 69% 0 mm
11:24 27 °C 20.3 °C 1016.1 hPa South 9.7 km/h 11.3 km/h 67% 0 mm
11:29 27.3 °C 20.6 °C 1016.1 hPa South 6.4 km/h 11.3 km/h 67% 0 mm
11:34 27.3 °C 20.4 °C 1016.1 hPa SSE 3.2 km/h 11.3 km/h 66% 0 mm
11:39 27.5 °C 19.6 °C 1016.1 hPa SW 11.3 km/h 12.9 km/h 62% 0 mm
11:44 27.6 °C 20.2 °C 1016.1 hPa SW 4.8 km/h 12.9 km/h 64% 0 mm
11:49 27.7 °C 21.1 °C 1016.1 hPa South 4.8 km/h 16.1 km/h 67% 0 mm
11:54 27.7 °C 21.1 °C 1016.1 hPa SW 8 km/h 16.1 km/h 67% 0 mm
11:59 27.4 °C 20.1 °C 1016.1 hPa SW 6.4 km/h 9.7 km/h 64% 0 mm
12:04 27.4 °C 20 °C 1016.1 hPa SSE 8 km/h 12.9 km/h 64% 0 mm
12:09 27.5 °C 20.6 °C 1016.1 hPa SW 8 km/h 11.3 km/h 66% 0 mm
12:14 27.7 °C 20.7 °C 1016.1 hPa South 9.7 km/h 14.5 km/h 66% 0 mm
12:19 27.7 °C 21.1 °C 1016.1 hPa SW 6.4 km/h 8 km/h 67% 0 mm
12:24 27.8 °C 20.9 °C 1016.1 hPa SW 4.8 km/h 8 km/h 66% 0 mm
12:29 27.7 °C 20.6 °C 1016.1 hPa SW 8 km/h 9.7 km/h 65% 0 mm
12:34 27.7 °C 20.7 °C 1016.1 hPa SW 4.8 km/h 8 km/h 66% 0 mm
12:39 27.8 °C 21.6 °C 1016.1 hPa SW 4.8 km/h 9.7 km/h 69% 0 mm
12:44 28.1 °C 21.3 °C 1016.1 hPa SSW 4.8 km/h 6.4 km/h 67% 0 mm
12:49 28.3 °C 21.6 °C 1016.1 hPa SW 8 km/h 8 km/h 67% 0 mm
12:54 28.6 °C 21.9 °C 1016.1 hPa SE 6.4 km/h 8 km/h 67% 0 mm
12:59 28.4 °C 21.2 °C 1016.1 hPa ENE 3.2 km/h 8 km/h 65% 0 mm
13:04 28.4 °C 21.2 °C 1015.8 hPa Calm   6.4 km/h 65% 0 mm
13:09 28.5 °C 21.8 °C 1015.8 hPa SW 4.8 km/h 6.4 km/h 67% 0 mm
13:14 28.6 °C 22.1 °C 1015.8 hPa SW 6.4 km/h 6.4 km/h 68% 0 mm
13:19 28.6 °C 21.6 °C 1015.8 hPa WSW 3.2 km/h 4.8 km/h 66% 0 mm
13:24 28.8 °C 22.1 °C 1015.8 hPa SSW 4.8 km/h 6.4 km/h 67% 0 mm
13:29 29 °C 22.3 °C 1015.5 hPa ENE 8 km/h 8 km/h 67% 0 mm
13:34 29.2 °C 22.4 °C 1015.5 hPa WSW 8 km/h 8 km/h 67% 0 mm
13:39 29.3 °C 22.3 °C 1015.5 hPa SW 3.2 km/h 8 km/h 66% 0 mm
13:44 29.4 °C 22.7 °C 1015.5 hPa SE 1.6 km/h 8 km/h 67% 0 mm
13:49 29.4 °C 22.4 °C 1015.5 hPa SE 3.2 km/h 3.2 km/h 66% 0 mm
13:54 29.5 °C 23 °C 1015.1 hPa Calm   8 km/h 68% 0 mm
13:59 29.9 °C 22.4 °C 1015.1 hPa SSE 1.6 km/h 4.8 km/h 64% 0 mm
14:04 30.3 °C 22.5 °C 1014.8 hPa WSW 4.8 km/h 4.8 km/h 63% 0 mm
14:09 30.1 °C 22.1 °C 1014.8 hPa SW 12.9 km/h 12.9 km/h 62% 0 mm
14:14 30.1 °C 21.7 °C 1014.8 hPa NNW 3.2 km/h 4.8 km/h 61% 0 mm
14:19 30.3 °C 22.7 °C 1014.8 hPa SW 4.8 km/h 4.8 km/h 64% 0 mm
14:25 30.5 °C 22.1 °C 1014.8 hPa SSW 3.2 km/h 8 km/h 61% 0 mm
14:29 30.6 °C 22.2 °C 1014.4 hPa SSE 6.4 km/h 8 km/h 61% 0 mm
14:35 30.6 °C 23.2 °C 1014.4 hPa SSE 6.4 km/h 11.3 km/h 65% 0 mm
14:40 30.7 °C 22.6 °C 1014.4 hPa SW 6.4 km/h 11.3 km/h 62% 0 mm
14:45 30.6 °C 22.7 °C 1014.4 hPa SSW 8 km/h 16.1 km/h 63% 0 mm
14:50 30.6 °C 22.7 °C 1014.4 hPa SW 8 km/h 11.3 km/h 63% 0 mm
14:55 30.5 °C 22.7 °C 1014.1 hPa SW 4.8 km/h 9.7 km/h 63% 0 mm
15:00 30.6 °C 23 °C 1014.1 hPa SSW 4.8 km/h 8 km/h 64% 0 mm
15:05 30.7 °C 22 °C 1013.8 hPa ESE 1.6 km/h 6.4 km/h 60% 0 mm
15:10 30.7 °C 22.3 °C 1013.8 hPa East 3.2 km/h 9.7 km/h 61% 0 mm
15:15 30.8 °C 22.7 °C 1013.8 hPa SE 9.7 km/h 9.7 km/h 62% 0 mm
15:20 30.6 °C 22.2 °C 1013.4 hPa ESE 8 km/h 11.3 km/h 61% 0 mm
15:25 30.4 °C 22.9 °C 1013.4 hPa South 3.2 km/h 12.9 km/h 64% 0 mm
15:30 30.6 °C 22.2 °C 1013.4 hPa WSW 6.4 km/h 11.3 km/h 61% 0 mm
15:35 30.8 °C 22.9 °C 1013.1 hPa SE 9.7 km/h 9.7 km/h 63% 0 mm
15:40 30.8 °C 23.2 °C 1013.1 hPa SE 4.8 km/h 8 km/h 64% 0 mm
15:45 30.9 °C 22.3 °C 1013.1 hPa WSW 9.7 km/h 9.7 km/h 60% 0 mm
15:50 30.8 °C 21.9 °C 1012.8 hPa SSW 3.2 km/h 11.3 km/h 59% 0 mm
15:55 31.1 °C 22.4 °C 1012.8 hPa SSW 4.8 km/h 14.5 km/h 60% 0 mm
16:00 31.2 °C 22.3 °C 1012.8 hPa SSW 8 km/h 11.3 km/h 59% 0 mm
16:05 31.2 °C 22.6 °C 1012.8 hPa SSW 4.8 km/h 9.7 km/h 60% 0 mm
16:10 31.3 °C 22.1 °C 1012.8 hPa South 6.4 km/h 9.7 km/h 58% 0 mm
16:15 31.4 °C 22.7 °C 1012.8 hPa SW 8 km/h 8 km/h 60% 0 mm
16:20 31.4 °C 23 °C 1012.4 hPa SE 8 km/h 14.5 km/h 61% 0 mm
16:25 31.3 °C 22.4 °C 1012.4 hPa SE 9.7 km/h 11.3 km/h 59% 0 mm
16:30 31.4 °C 21.6 °C 1012.4 hPa SSE 4.8 km/h 9.7 km/h 56% 0 mm
16:35 31.5 °C 21.9 °C 1012.4 hPa SSE 3.2 km/h 8 km/h 57% 0 mm
16:40 31.6 °C 22.6 °C 1012.1 hPa SE 4.8 km/h 11.3 km/h 59% 0 mm
16:45 31.6 °C 22.3 °C 1012.1 hPa WSW 8 km/h 9.7 km/h 58% 0 mm
16:50 31.3 °C 21.8 °C 1012.1 hPa SSE 6.4 km/h 14.5 km/h 57% 0 mm
16:55 31.3 °C 21.8 °C 1012.1 hPa SSW 6.4 km/h 12.9 km/h 57% 0 mm
17:00 31.4 °C 21.9 °C 1012.1 hPa SW 11.3 km/h 12.9 km/h 57% 0 mm
17:05 31.4 °C 22.1 °C 1011.7 hPa WSW 4.8 km/h 9.7 km/h 58% 0 mm
17:10 31.4 °C 22.1 °C 1011.7 hPa SW 9.7 km/h 9.7 km/h 58% 0 mm
17:15 31.2 °C 22.2 °C 1011.7 hPa SSE 8 km/h 14.5 km/h 59% 0 mm
17:20 31.4 °C 22.4 °C 1011.4 hPa SSE 4.8 km/h 8 km/h 59% 0 mm
17:25 31.6 °C 21.7 °C 1011.4 hPa SSW 6.4 km/h 11.3 km/h 56% 0 mm
17:30 31.4 °C 21.9 °C 1011.4 hPa SSE 6.4 km/h 11.3 km/h 57% 0 mm
17:35 31.4 °C 21.9 °C 1011.1 hPa SSW 3.2 km/h 11.3 km/h 57% 0 mm
17:40 31.4 °C 22.4 °C 1011.1 hPa SE 8 km/h 11.3 km/h 59% 0 mm
17:45 31.2 °C 22.2 °C 1011.1 hPa SSE 12.9 km/h 12.9 km/h 59% 0 mm
17:50 31.1 °C 21.9 °C 1011.1 hPa SSE 9.7 km/h 16.1 km/h 58% 0 mm
17:55 31.2 °C 21.7 °C 1011.1 hPa SE 6.4 km/h 14.5 km/h 57% 0 mm
18:00 31.1 °C 21.9 °C 1011.1 hPa SSE 6.4 km/h 19.3 km/h 58% 0 mm
18:05 31.2 °C 22.2 °C 1011.1 hPa SSE 14.5 km/h 14.5 km/h 59% 0 mm
18:10 31 °C 22.3 °C 1011.1 hPa South 11.3 km/h 19.3 km/h 60% 0 mm
18:15 30.8 °C 22.4 °C 1011.1 hPa SSE 16.1 km/h 19.3 km/h 61% 0 mm
18:21 30.7 °C 22.6 °C 1011.1 hPa South 12.9 km/h 16.1 km/h 62% 0 mm
18:26 30.7 °C 22.3 °C 1011.1 hPa SE 11.3 km/h 16.1 km/h 61% 0 mm
18:30 30.7 °C 22.6 °C 1011.1 hPa SE 11.3 km/h 16.1 km/h 62% 0 mm
18:35 30.7 °C 22.9 °C 1011.1 hPa SE 9.7 km/h 12.9 km/h 63% 0 mm
18:41 30.6 °C 22.8 °C 1010.7 hPa SSW 6.4 km/h 16.1 km/h 63% 0 mm
18:46 30.6 °C 22.7 °C 1010.7 hPa SSE 11.3 km/h 17.7 km/h 63% 0 mm
18:51 30.4 °C 23.1 °C 1010.7 hPa SSE 8 km/h 12.9 km/h 65% 0 mm
18:56 30.3 °C 22.9 °C 1010.7 hPa SE 9.7 km/h 17.7 km/h 65% 0 mm
19:01 30.2 °C 22.9 °C 1010.7 hPa SE 9.7 km/h 14.5 km/h 65% 0 mm
19:06 30.2 °C 23.1 °C 1010.7 hPa SSE 12.9 km/h 17.7 km/h 66% 0 mm
19:11 30.1 °C 22.8 °C 1010.7 hPa SSE 11.3 km/h 12.9 km/h 65% 0 mm
19:16 30.1 °C 22.8 °C 1011.1 hPa SSW 8 km/h 12.9 km/h 65% 0 mm
19:21 30.1 °C 22.8 °C 1011.1 hPa SSW 4.8 km/h 9.7 km/h 65% 0 mm
19:26 30.1 °C 22.8 °C 1011.1 hPa South 8 km/h 12.9 km/h 65% 0 mm
19:31 29.9 °C 23.2 °C 1011.1 hPa SE 9.7 km/h 12.9 km/h 67% 0 mm
19:36 29.8 °C 23.2 °C 1011.1 hPa SE 4.8 km/h 9.7 km/h 68% 0 mm
19:41 29.7 °C 23.1 °C 1011.1 hPa SSW 3.2 km/h 8 km/h 68% 0 mm
19:46 29.3 °C 23.1 °C 1011.4 hPa SE 1.6 km/h 4.8 km/h 69% 0 mm
19:51 29.1 °C 23.1 °C 1011.4 hPa SSW 1.6 km/h 9.7 km/h 70% 0 mm
19:56 28.8 °C 22.8 °C 1011.4 hPa SSW 4.8 km/h 9.7 km/h 70% 0 mm
20:01 28.6 °C 22.8 °C 1011.4 hPa South 4.8 km/h 6.4 km/h 71% 0 mm
20:06 28.4 °C 22.9 °C 1011.4 hPa South 4.8 km/h 4.8 km/h 72% 0 mm
20:11 28.2 °C 22.9 °C 1011.4 hPa SSW 1.6 km/h 3.2 km/h 73% 0 mm
20:16 27.9 °C 22.9 °C 1011.7 hPa SW 1.6 km/h 6.4 km/h 74% 0 mm
20:21 27.7 °C 23.1 °C 1011.7 hPa WSW 1.6 km/h 6.4 km/h 76% 0 mm
20:26 27.3 °C 22.9 °C 1011.7 hPa SW 1.6 km/h 3.2 km/h 77% 0 mm
20:31 27.3 °C 22.9 °C 1011.7 hPa SSE 1.6 km/h 6.4 km/h 77% 0 mm
20:36 27.1 °C 22.9 °C 1011.7 hPa SSW 1.6 km/h 4.8 km/h 78% 0 mm
20:41 26.9 °C 22.8 °C 1012.1 hPa Calm     78% 0 mm
20:46 26.8 °C 22.8 °C 1012.1 hPa SSE 1.6 km/h 3.2 km/h 79% 0 mm
20:51 26.7 °C 22.8 °C 1012.1 hPa SE 1.6 km/h 1.6 km/h 79% 0 mm
20:56 26.6 °C 22.8 °C 1012.1 hPa Calm   3.2 km/h 80% 0 mm
21:01 26.4 °C 22.7 °C 1011.7 hPa SE 3.2 km/h 4.8 km/h 80% 0 mm
21:06 26.3 °C 22.8 °C 1011.7 hPa SE 3.2 km/h 4.8 km/h 81% 0 mm
21:11 26.3 °C 22.6 °C 1011.7 hPa ESE 6.4 km/h 6.4 km/h 80% 0 mm
21:16 26.4 °C 22.7 °C 1012.1 hPa SE 6.4 km/h 6.4 km/h 80% 0 mm
21:21 26.4 °C 22.7 °C 1012.1 hPa SE 4.8 km/h 6.4 km/h 80% 0 mm
21:26 26.3 °C 22.6 °C 1012.1 hPa SE 3.2 km/h 8 km/h 80% 0 mm
21:31 26.2 °C 22.7 °C 1012.1 hPa SE 4.8 km/h 6.4 km/h 81% 0 mm
21:37 26.2 °C 22.7 °C 1012.1 hPa SSE 3.2 km/h 6.4 km/h 81% 0 mm
21:42 26.1 °C 22.6 °C 1012.1 hPa ESE 6.4 km/h 6.4 km/h 81% 0 mm
21:47 26.2 °C 22.7 °C 1012.4 hPa SE 4.8 km/h 6.4 km/h 81% 0 mm
21:52 26.1 °C 22.6 °C 1012.4 hPa SE 3.2 km/h 4.8 km/h 81% 0 mm
21:57 26.1 °C 22.7 °C 1012.8 hPa SSE 6.4 km/h 6.4 km/h 82% 0 mm
22:02 25.9 °C 22.7 °C 1013.1 hPa SSE 3.2 km/h 6.4 km/h 82% 0 mm
22:07 25.8 °C 22.7 °C 1013.1 hPa SSE 1.6 km/h 4.8 km/h 83% 0 mm
22:12 25.7 °C 22.8 °C 1013.4 hPa SSW 3.2 km/h 4.8 km/h 84% 0 mm
22:17 25.7 °C 22.8 °C 1013.4 hPa SSE 6.4 km/h 6.4 km/h 84% 0 mm
22:22 25.6 °C 22.9 °C 1013.4 hPa SSE 3.2 km/h 8 km/h 85% 0 mm
22:28 25.7 °C 23 °C 1013.4 hPa SSW 4.8 km/h 9.7 km/h 85% 0 mm
22:33 25.8 °C 23.1 °C 1013.4 hPa South 1.6 km/h 8 km/h 85% 0 mm
22:38 25.7 °C 23 °C 1013.4 hPa SSE 6.4 km/h 8 km/h 85% 0 mm
22:43 25.6 °C 23.1 °C 1013.4 hPa SSW 6.4 km/h 9.7 km/h 86% 0 mm
22:48 25.5 °C 23.2 °C 1013.4 hPa SE 9.7 km/h 9.7 km/h 87% 0 mm
22:53 25.4 °C 23.1 °C 1013.4 hPa South 4.8 km/h 6.4 km/h 87% 0 mm
22:58 25.5 °C 23.2 °C 1013.4 hPa SSE 1.6 km/h 8 km/h 87% 0 mm
23:03 25.5 °C 23.2 °C 1013.4 hPa SSE 4.8 km/h 8 km/h 87% 0 mm
23:08 25.5 °C 23.2 °C 1013.4 hPa SSE 6.4 km/h 8 km/h 87% 0 mm
23:13 25.5 °C 23.2 °C 1013.4 hPa SSE 6.4 km/h 11.3 km/h 87% 0 mm
23:18 25.5 °C 23.2 °C 1013.4 hPa SSE 8 km/h 9.7 km/h 87% 0 mm
23:23 25.4 °C 23.3 °C 1013.1 hPa South 8 km/h 9.7 km/h 88% 0 mm
23:28 25.4 °C 23.3 °C 1013.4 hPa SSE 8 km/h 11.3 km/h 88% 0 mm
23:33 25.4 °C 23.3 °C 1013.1 hPa South 3.2 km/h 8 km/h 88% 0 mm
23:38 25.3 °C 23.2 °C 1013.1 hPa SSE 8 km/h 11.3 km/h 88% 0 mm
23:43 25.3 °C 23.2 °C 1013.1 hPa SSE 6.4 km/h 12.9 km/h 88% 0 mm
23:48 25.3 °C 23.2 °C 1013.1 hPa SSE 6.4 km/h 11.3 km/h 88% 0 mm
23:53 25.2 °C 23.1 °C 1013.1 hPa SSW 3.2 km/h 9.7 km/h 88% 0 mm
23:58 25.2 °C 23.1 °C 1013.1 hPa South 9.7 km/h 12.9 km/h 88% 0 mm
Compliments of Weather Underground